Time;durP1;ratioP1;P1;durP2;ratioP2;P2;SDS_P1;SDS_P2;PMS_P1;PMS_P2;Temp;Humidity;BMP_temperature;BMP_pressure;BME280_temperature;BME280_humidity;BME280_pressure;Samples;Min_cycle;Max_cycle;Signal;HPM_P1;HPM_P2
2023/05/11 00:02:04;;;;;;;3.63;3.33;;;;;;;;;;10031764;28;20053;-62
2023/05/11 00:06:57;;;;;;;4.47;3.00;;;;;;;;;;10030811;28;20042;-62
2023/05/11 00:11:52;;;;;;;5.28;3.30;;;;;;;;;;10040380;28;20058;-62
2023/05/11 00:16:45;;;;;;;5.63;3.55;;;;;;;;;;10052345;28;20062;-62
2023/05/11 00:21:37;;;;;;;4.05;3.50;;;;;;;;;;10036052;28;20088;-62
2023/05/11 00:26:31;;;;;;;2.55;2.33;;;;;;;;;;10028535;28;20065;-62
2023/05/11 00:31:25;;;;;;;3.35;2.83;;;;;;;;;;10029801;28;20057;-62
2023/05/11 00:36:21;;;;;;;3.05;2.65;;;;;;;;;;10027726;28;20042;-62
2023/05/11 00:41:16;;;;;;;3.53;2.58;;;;;;;;;;10028990;28;20050;-62
2023/05/11 00:46:09;;;;;;;2.85;2.33;;;;;;;;;;10029603;28;20049;-62
2023/05/11 00:51:03;;;;;;;2.17;1.98;;;;;;;;;;10034132;28;20054;-62
2023/05/11 00:55:58;;;;;;;2.00;1.90;;;;;;;;;;10033118;28;20045;-62
2023/05/11 01:00:51;;;;;;;3.33;1.85;;;;;;;;;;10031599;28;20061;-62
2023/05/11 01:06:04;;;;;;;2.20;1.60;;;;;;;;;;10027235;28;20046;-62
2023/05/11 01:11:10;;;;;;;4.60;1.90;;;;;;;;;;10026836;28;20468;-62
2023/05/11 01:16:23;;;;;;;2.05;1.25;;;;;;;;;;10021071;28;20424;-61
2023/05/11 01:21:22;;;;;;;1.10;1.07;;;;;;;;;;10037873;28;20045;-61
2023/05/11 01:26:43;;;;;;;1.40;1.17;;;;;;;;;;10029472;28;20050;-63
2023/05/11 01:31:35;;;;;;;;;;;;;;;;;;10031071;28;20061;-60
2023/05/11 01:36:51;;;;;;;1.30;1.20;;;;;;;;;;10026531;28;20358;-62
2023/05/11 01:41:45;;;;;;;0.93;0.93;;;;;;;;;;10029836;28;20049;-61
2023/05/11 01:46:39;;;;;;;1.00;1.00;;;;;;;;;;10037188;28;20485;-62
2023/05/11 01:51:35;;;;;;;0.85;0.85;;;;;;;;;;10032900;28;20057;-62
2023/05/11 01:56:30;;;;;;;0.80;0.80;;;;;;;;;;10033094;28;20041;-62
2023/05/11 02:01:24;;;;;;;1.10;1.02;;;;;;;;;;10024296;28;20050;-62
2023/05/11 02:06:20;;;;;;;1.75;1.20;;;;;;;;;;10030329;28;20050;-62
2023/05/11 02:11:16;;;;;;;1.30;1.25;;;;;;;;;;10031209;28;20112;-61
2023/05/11 02:16:10;;;;;;;1.83;1.73;;;;;;;;;;10025513;28;20053;-63
2023/05/11 02:21:04;;;;;;;2.63;1.40;;;;;;;;;;10026539;28;20062;-62
2023/05/11 02:25:57;;;;;;;5.13;1.60;;;;;;;;;;10025264;28;20141;-62
2023/05/11 02:30:54;;;;;;;1.95;1.70;;;;;;;;;;10024641;28;20053;-62
2023/05/11 02:35:49;;;;;;;2.25;1.40;;;;;;;;;;10018911;28;20128;-62
2023/05/11 02:40:47;;;;;;;1.73;1.63;;;;;;;;;;10025485;28;20042;-62
2023/05/11 02:45:43;;;;;;;2.50;1.30;;;;;;;;;;10024078;28;20072;-62
2023/05/11 02:50:39;;;;;;;1.20;1.10;;;;;;;;;;10040335;28;20054;-62
2023/05/11 02:55:34;;;;;;;2.47;1.38;;;;;;;;;;10032215;28;20441;-61
2023/05/11 03:00:27;;;;;;;1.20;1.10;;;;;;;;;;10028161;28;20046;-62
2023/05/11 03:05:21;;;;;;;1.17;1.10;;;;;;;;;;10025948;28;20058;-61
2023/05/11 03:10:14;;;;;;;1.40;1.15;;;;;;;;;;10025335;28;20038;-61
2023/05/11 03:15:13;;;;;;;1.45;1.35;;;;;;;;;;10030102;28;20045;-62
2023/05/11 03:20:09;;;;;;;1.38;1.27;;;;;;;;;;10015690;28;20046;-62
2023/05/11 03:25:02;;;;;;;1.48;1.38;;;;;;;;;;10033482;28;20406;-62
2023/05/11 03:29:56;;;;;;;1.95;1.05;;;;;;;;;;10035331;28;20125;-63
2023/05/11 03:34:49;;;;;;;1.45;1.35;;;;;;;;;;10037258;28;20050;-63
2023/05/11 03:39:46;;;;;;;2.25;1.10;;;;;;;;;;10013411;28;20108;-62
2023/05/11 03:44:40;;;;;;;2.08;1.30;;;;;;;;;;10035224;28;20509;-62
2023/05/11 03:49:33;;;;;;;1.45;1.35;;;;;;;;;;10014608;28;20049;-63
2023/05/11 03:54:27;;;;;;;1.30;1.20;;;;;;;;;;10013748;28;20089;-62
2023/05/11 03:59:21;;;;;;;1.63;1.52;;;;;;;;;;10031956;28;20068;-62
2023/05/11 04:04:15;;;;;;;1.50;1.27;;;;;;;;;;10013325;28;20145;-61
2023/05/11 04:09:08;;;;;;;3.97;1.30;;;;;;;;;;10029903;28;20038;-61
2023/05/11 04:14:02;;;;;;;1.10;1.00;;;;;;;;;;10038060;28;20045;-61
2023/05/11 04:18:55;;;;;;;1.00;1.00;;;;;;;;;;10047987;28;20045;-61
2023/05/11 04:23:48;;;;;;;1.35;1.25;;;;;;;;;;10043727;28;20052;-62
2023/05/11 04:28:42;;;;;;;1.52;0.90;;;;;;;;;;10032459;28;20512;-61
2023/05/11 04:33:35;;;;;;;0.70;0.70;;;;;;;;;;10045573;28;20045;-62
2023/05/11 04:38:29;;;;;;;0.95;0.95;;;;;;;;;;10034136;28;20046;-62
2023/05/11 04:43:23;;;;;;;1.38;1.25;;;;;;;;;;10012191;28;20505;-62
2023/05/11 04:48:16;;;;;;;0.77;0.77;;;;;;;;;;10024823;28;20129;-61
2023/05/11 04:53:12;;;;;;;1.23;1.10;;;;;;;;;;10047084;28;20064;-60
2023/05/11 04:58:05;;;;;;;1.88;0.75;;;;;;;;;;10044807;28;20081;-61
2023/05/11 05:02:58;;;;;;;0.80;0.80;;;;;;;;;;10027065;28;20050;-60
2023/05/11 05:07:51;;;;;;;0.90;0.90;;;;;;;;;;10012732;28;20140;-59
2023/05/11 05:12:45;;;;;;;0.98;0.98;;;;;;;;;;10031510;28;20108;-61
2023/05/11 05:17:39;;;;;;;1.23;1.00;;;;;;;;;;10032459;28;20571;-62
2023/05/11 05:22:33;;;;;;;1.27;1.00;;;;;;;;;;10036775;28;20397;-61
2023/05/11 05:27:27;;;;;;;1.40;1.30;;;;;;;;;;10051628;28;20493;-60
2023/05/11 05:32:21;;;;;;;1.20;1.10;;;;;;;;;;10042709;28;20083;-60
2023/05/11 05:37:15;;;;;;;1.10;1.05;;;;;;;;;;10041442;28;20643;-61
2023/05/11 05:42:09;;;;;;;1.45;1.05;;;;;;;;;;10044935;28;20057;-61
2023/05/11 05:47:03;;;;;;;1.40;1.10;;;;;;;;;;10031395;28;20535;-60
2023/05/11 05:51:59;;;;;;;1.10;1.00;;;;;;;;;;10070251;28;20056;-61
2023/05/11 05:56:56;;;;;;;1.08;1.02;;;;;;;;;;10034587;28;20140;-63
2023/05/11 06:01:49;;;;;;;1.40;1.25;;;;;;;;;;10025501;28;20100;-61
2023/05/11 06:06:42;;;;;;;3.65;1.38;;;;;;;;;;10030725;28;20052;-61
2023/05/11 06:11:37;;;;;;;3.38;1.67;;;;;;;;;;10038817;28;20053;-60
2023/05/11 06:16:30;;;;;;;2.30;1.70;;;;;;;;;;10035429;28;20137;-63
2023/05/11 06:21:24;;;;;;;3.25;1.73;;;;;;;;;;10051690;28;20136;-60
2023/05/11 06:26:18;;;;;;;2.33;1.67;;;;;;;;;;10030161;28;20058;-60
2023/05/11 06:31:14;;;;;;;3.97;2.25;;;;;;;;;;10049325;28;20421;-63
2023/05/11 06:36:08;;;;;;;4.60;3.25;;;;;;;;;;10050560;28;20038;-61
2023/05/11 06:41:01;;;;;;;5.45;3.65;;;;;;;;;;10027595;28;20092;-62
2023/05/11 06:45:54;;;;;;;4.97;3.42;;;;;;;;;;10037117;28;20056;-62
2023/05/11 06:50:48;;;;;;;4.38;3.63;;;;;;;;;;10042368;28;20515;-62
2023/05/11 06:55:42;;;;;;;6.38;3.60;;;;;;;;;;10037034;28;20104;-63
2023/05/11 07:00:36;;;;;;;4.50;3.38;;;;;;;;;;10050469;28;20053;-62
2023/05/11 07:05:30;;;;;;;8.82;3.88;;;;;;;;;;10039610;28;20054;-62
2023/05/11 07:10:24;;;;;;;5.07;3.90;;;;;;;;;;10035918;28;20042;-62
2023/05/11 07:15:18;;;;;;;5.22;4.07;;;;;;;;;;10037125;28;20451;-62
2023/05/11 07:20:12;;;;;;;4.43;3.55;;;;;;;;;;10041315;28;20042;-62
2023/05/11 07:25:10;;;;;;;4.22;3.70;;;;;;;;;;10036120;28;20498;-62
2023/05/11 07:30:21;;;;;;;4.85;3.60;;;;;;;;;;10031170;28;20417;-62
2023/05/11 07:35:14;;;;;;;7.97;4.13;;;;;;;;;;10041029;28;20077;-61
2023/05/11 07:40:08;;;;;;;8.60;4.65;;;;;;;;;;10042507;28;20057;-61
2023/05/11 07:45:01;;;;;;;4.93;4.15;;;;;;;;;;10038520;28;20057;-61
2023/05/11 07:49:55;;;;;;;5.68;4.78;;;;;;;;;;10045733;28;20053;-61
2023/05/11 07:54:49;;;;;;;4.78;3.85;;;;;;;;;;10034751;28;20078;-62
2023/05/11 07:59:43;;;;;;;8.05;4.70;;;;;;;;;;10031369;28;20070;-62
2023/05/11 08:04:37;;;;;;;5.57;4.60;;;;;;;;;;10055135;28;20404;-62
2023/05/11 08:09:31;;;;;;;4.95;3.83;;;;;;;;;;10037514;28;20416;-62
2023/05/11 08:14:24;;;;;;;3.90;3.40;;;;;;;;;;10032117;28;20108;-62
2023/05/11 08:19:18;;;;;;;3.72;2.80;;;;;;;;;;10028605;28;20076;-62
2023/05/11 08:24:12;;;;;;;4.97;4.00;;;;;;;;;;10033204;28;20081;-62
2023/05/11 08:29:06;;;;;;;4.15;2.60;;;;;;;;;;10035656;28;20057;-62
2023/05/11 08:33:59;;;;;;;3.00;2.63;;;;;;;;;;10029300;28;20050;-62
2023/05/11 08:38:53;;;;;;;2.20;2.00;;;;;;;;;;10030774;28;20100;-62
2023/05/11 08:43:51;;;;;;;2.83;2.42;;;;;;;;;;10059029;28;20128;-62
2023/05/11 08:48:45;;;;;;;6.22;2.30;;;;;;;;;;10045503;28;20457;-62
2023/05/11 08:53:39;;;;;;;1.38;1.27;;;;;;;;;;10033339;28;20084;-62
2023/05/11 08:58:32;;;;;;;2.00;1.55;;;;;;;;;;10036209;28;20065;-62
2023/05/11 09:03:29;;;;;;;2.85;2.50;;;;;;;;;;10029705;28;20133;-62
2023/05/11 09:08:22;;;;;;;2.63;2.40;;;;;;;;;;10047756;28;20045;-62
2023/05/11 09:13:15;;;;;;;3.00;2.35;;;;;;;;;;10030992;28;20054;-62
2023/05/11 09:18:09;;;;;;;3.63;2.70;;;;;;;;;;10053548;28;20236;-62
2023/05/11 09:23:03;;;;;;;3.60;3.03;;;;;;;;;;10038810;28;20148;-63
2023/05/11 09:27:58;;;;;;;4.15;3.17;;;;;;;;;;10036358;28;20064;-62
2023/05/11 09:32:59;;;;;;;3.58;3.15;;;;;;;;;;10042717;28;20045;-62
2023/05/11 09:38:13;;;;;;;4.80;4.00;;;;;;;;;;10028894;28;20049;-62
2023/05/11 09:43:17;;;;;;;5.72;4.38;;;;;;;;;;10028726;28;20118;-62
2023/05/11 09:48:30;;;;;;;4.85;4.38;;;;;;;;;;10026748;28;20073;-62
2023/05/11 09:53:37;;;;;;;8.05;5.32;;;;;;;;;;10037169;28;20428;-62
2023/05/11 09:58:53;;;;;;;6.00;5.23;;;;;;;;;;10024419;28;20136;-62
2023/05/11 10:03:54;;;;;;;6.50;5.55;;;;;;;;;;10022205;28;20080;-62
2023/05/11 10:09:09;;;;;;;7.10;5.20;;;;;;;;;;10030301;28;20054;-62
2023/05/11 10:14:03;;;;;;;6.05;5.43;;;;;;;;;;10030237;28;20073;-62
2023/05/11 10:18:59;;;;;;;8.20;6.78;;;;;;;;;;10043418;28;20045;-62
2023/05/11 10:23:52;;;;;;;5.22;4.40;;;;;;;;;;10033863;28;20420;-62
2023/05/11 10:28:45;;;;;;;3.65;3.33;;;;;;;;;;10034524;28;20065;-62
2023/05/11 10:33:40;;;;;;;3.40;2.97;;;;;;;;;;10037931;28;20050;-62
2023/05/11 10:38:35;;;;;;;5.53;2.60;;;;;;;;;;10055574;28;20140;-61
2023/05/11 10:44:02;;;;;;;4.22;3.25;;;;;;;;;;10040476;28;20061;-64
2023/05/11 10:49:13;;;;;;;3.70;2.70;;;;;;;;;;10030485;28;20049;-61
2023/05/11 10:54:43;;;;;;;2.55;1.90;;;;;;;;;;10040309;28;20061;-64
2023/05/11 11:00:08;;;;;;;1.30;1.20;;;;;;;;;;10036725;28;20046;-64
2023/05/11 11:05:33;;;;;;;1.67;0.85;;;;;;;;;;10034804;28;20525;-64
2023/05/11 11:10:36;;;;;;;2.35;0.73;;;;;;;;;;10035100;28;20044;-64
2023/05/11 11:15:57;;;;;;;0.70;0.70;;;;;;;;;;10025382;28;20096;-61
2023/05/11 11:20:52;;;;;;;2.58;0.70;;;;;;;;;;10046135;28;20480;-62
2023/05/11 11:25:52;;;;;;;0.80;0.60;;;;;;;;;;10033355;28;20064;-64
2023/05/11 11:30:46;;;;;;;2.47;1.20;;;;;;;;;;10034319;28;20057;-63
2023/05/11 11:35:39;;;;;;;5.00;0.90;;;;;;;;;;10033556;28;20069;-64
2023/05/11 11:40:43;;;;;;;1.92;0.73;;;;;;;;;;10030275;28;20053;-64
2023/05/11 11:46:02;;;;;;;1.23;0.93;;;;;;;;;;9957547;28;20067;-64
2023/05/11 11:51:07;;;;;;;0.85;0.60;;;;;;;;;;9955552;28;20085;-62
2023/05/11 11:56:00;;;;;;;0.73;0.60;;;;;;;;;;9954798;28;20050;-64
2023/05/11 12:00:54;;;;;;;1.60;0.70;;;;;;;;;;9960267;28;20128;-64
2023/05/11 12:05:53;;;;;;;0.63;0.63;;;;;;;;;;10031571;28;20050;-60
2023/05/11 12:10:54;;;;;;;1.17;0.80;;;;;;;;;;10056793;28;20596;-61
2023/05/11 12:15:47;;;;;;;0.75;0.70;;;;;;;;;;10048507;28;20056;-60
2023/05/11 12:20:41;;;;;;;2.13;0.85;;;;;;;;;;10029917;28;20192;-63
2023/05/11 12:25:35;;;;;;;0.80;0.80;;;;;;;;;;10046263;28;20069;-63
2023/05/11 12:30:32;;;;;;;0.82;0.82;;;;;;;;;;10047728;28;20057;-62
2023/05/11 12:35:28;;;;;;;0.93;0.90;;;;;;;;;;10039634;28;20060;-61
2023/05/11 12:40:22;;;;;;;1.38;1.25;;;;;;;;;;10053795;28;20046;-61
2023/05/11 12:45:15;;;;;;;2.47;0.82;;;;;;;;;;10042789;28;20100;-63
2023/05/11 12:50:10;;;;;;;2.35;0.80;;;;;;;;;;10033477;28;20099;-64
2023/05/11 12:55:05;;;;;;;1.33;0.90;;;;;;;;;;10053492;28;20058;-64
2023/05/11 13:00:14;;;;;;;0.85;0.82;;;;;;;;;;10038089;28;20050;-63
2023/05/11 13:05:13;;;;;;;0.55;0.55;;;;;;;;;;10051531;28;20133;-61
2023/05/11 13:10:08;;;;;;;1.08;0.70;;;;;;;;;;10038515;28;20054;-62
2023/05/11 13:15:12;;;;;;;4.35;0.88;;;;;;;;;;10033358;28;20636;-64
2023/05/11 13:20:19;;;;;;;1.00;0.93;;;;;;;;;;10030721;28;20050;-64
2023/05/11 13:25:20;;;;;;;0.70;0.70;;;;;;;;;;10042219;28;20038;-64
2023/05/11 13:30:13;;;;;;;0.60;0.60;;;;;;;;;;10037069;28;20129;-64
2023/05/11 13:35:09;;;;;;;0.98;0.60;;;;;;;;;;10037426;28;20390;-64
2023/05/11 13:40:03;;;;;;;0.70;0.70;;;;;;;;;;10036263;28;20400;-64
2023/05/11 13:44:57;;;;;;;0.50;0.50;;;;;;;;;;10037810;28;20534;-64
2023/05/11 13:49:52;;;;;;;1.55;0.52;;;;;;;;;;10039479;28;20049;-64
2023/05/11 13:54:45;;;;;;;0.65;0.65;;;;;;;;;;10036717;28;20088;-64
2023/05/11 13:59:40;;;;;;;1.50;1.00;;;;;;;;;;10038382;28;20049;-64
2023/05/11 14:04:33;;;;;;;3.45;1.00;;;;;;;;;;10037425;28;20046;-64
2023/05/11 14:09:26;;;;;;;1.05;1.05;;;;;;;;;;10027129;28;20050;-64
2023/05/11 14:14:20;;;;;;;0.70;0.70;;;;;;;;;;10016408;28;20464;-64
2023/05/11 14:19:14;;;;;;;1.13;0.90;;;;;;;;;;10033049;28;20054;-64
2023/05/11 14:24:07;;;;;;;1.00;1.00;;;;;;;;;;10025093;28;20053;-64
2023/05/11 14:29:04;;;;;;;0.80;0.80;;;;;;;;;;10037834;28;20056;-63
2023/05/11 14:33:58;;;;;;;1.65;0.90;;;;;;;;;;10033062;28;20050;-63
2023/05/11 14:38:51;;;;;;;1.15;1.00;;;;;;;;;;10041291;28;20087;-64
2023/05/11 14:43:45;;;;;;;1.77;1.45;;;;;;;;;;10035592;28;20116;-63
2023/05/11 14:48:39;;;;;;;2.80;0.95;;;;;;;;;;10026891;28;20140;-63
2023/05/11 14:53:33;;;;;;;1.42;0.90;;;;;;;;;;10039175;28;20131;-63
2023/05/11 14:58:27;;;;;;;0.75;0.75;;;;;;;;;;10029596;28;20402;-63
2023/05/11 15:03:21;;;;;;;0.60;0.60;;;;;;;;;;10045192;28;20049;-63
2023/05/11 15:08:15;;;;;;;0.50;0.50;;;;;;;;;;10048934;28;20129;-64
2023/05/11 15:13:22;;;;;;;0.50;0.50;;;;;;;;;;10049024;28;20108;-63
2023/05/11 15:18:15;;;;;;;0.50;0.50;;;;;;;;;;10041133;28;20069;-63
2023/05/11 15:23:10;;;;;;;2.08;0.57;;;;;;;;;;10038186;28;20124;-62
2023/05/11 15:28:05;;;;;;;3.45;0.60;;;;;;;;;;10044917;28;20050;-63
2023/05/11 15:32:58;;;;;;;2.85;1.27;;;;;;;;;;10037895;28;20099;-63
2023/05/11 15:37:51;;;;;;;1.67;1.10;;;;;;;;;;10056773;28;20498;-63
2023/05/11 15:42:45;;;;;;;1.98;0.60;;;;;;;;;;10045873;28;20050;-63
2023/05/11 15:47:39;;;;;;;0.93;0.52;;;;;;;;;;10040144;28;20417;-63
2023/05/11 15:52:33;;;;;;;0.60;0.60;;;;;;;;;;10034048;28;20053;-63
2023/05/11 15:57:26;;;;;;;2.15;0.77;;;;;;;;;;10045966;28;20061;-63
2023/05/11 16:02:19;;;;;;;4.38;0.50;;;;;;;;;;10031248;28;20041;-68
2023/05/11 16:07:13;;;;;;;1.75;0.60;;;;;;;;;;10014447;28;20057;-62
2023/05/11 16:12:07;;;;;;;1.33;0.60;;;;;;;;;;10029180;28;20140;-62
2023/05/11 16:17:00;;;;;;;2.25;0.60;;;;;;;;;;10025265;28;20056;-62
2023/05/11 16:21:54;;;;;;;1.00;0.65;;;;;;;;;;10026344;28;20139;-63
2023/05/11 16:26:48;;;;;;;1.15;0.63;;;;;;;;;;10026559;28;20050;-63
2023/05/11 16:31:42;;;;;;;2.65;0.50;;;;;;;;;;10032194;28;20050;-62
2023/05/11 16:36:36;;;;;;;0.43;0.43;;;;;;;;;;10026967;28;20068;-63
2023/05/11 16:41:30;;;;;;;1.55;0.60;;;;;;;;;;10027851;28;20072;-63
2023/05/11 16:46:24;;;;;;;1.63;0.80;;;;;;;;;;10022080;28;20077;-68
2023/05/11 16:51:18;;;;;;;0.80;0.70;;;;;;;;;;10019389;28;20058;-65
2023/05/11 16:56:12;;;;;;;2.22;0.68;;;;;;;;;;10032791;28;20096;-66
2023/05/11 17:01:06;;;;;;;0.55;0.55;;;;;;;;;;10029229;28;20045;-66
2023/05/11 17:05:59;;;;;;;1.40;0.60;;;;;;;;;;10047008;28;20072;-66
2023/05/11 17:10:52;;;;;;;0.98;0.70;;;;;;;;;;10026949;28;20065;-64
2023/05/11 17:15:46;;;;;;;0.75;0.70;;;;;;;;;;10032253;28;20091;-67
2023/05/11 17:20:38;;;;;;;0.60;0.60;;;;;;;;;;10018935;28;20085;-67
2023/05/11 17:25:32;;;;;;;0.60;0.60;;;;;;;;;;10022622;28;20042;-66
2023/05/11 17:30:25;;;;;;;0.73;0.73;;;;;;;;;;10024595;28;20046;-65
2023/05/11 17:35:38;;;;;;;0.60;0.60;;;;;;;;;;10029955;28;20124;-65
2023/05/11 17:40:32;;;;;;;1.77;0.90;;;;;;;;;;10030032;28;20145;-64
2023/05/11 17:45:25;;;;;;;2.78;1.13;;;;;;;;;;10020979;28;20101;-65
2023/05/11 17:50:19;;;;;;;0.70;0.70;;;;;;;;;;10033088;28;20060;-63
2023/05/11 17:55:13;;;;;;;1.02;0.95;;;;;;;;;;10022999;28;20058;-66
2023/05/11 18:00:08;;;;;;;2.47;0.88;;;;;;;;;;10020897;28;20053;-65
2023/05/11 18:05:01;;;;;;;3.25;0.90;;;;;;;;;;10017850;28;20078;-66
2023/05/11 18:09:56;;;;;;;0.95;0.88;;;;;;;;;;10021476;28;20072;-66
2023/05/11 18:14:50;;;;;;;3.55;1.00;;;;;;;;;;10028018;28;20532;-66
2023/05/11 18:19:43;;;;;;;1.48;1.10;;;;;;;;;;10020624;28;20050;-66
2023/05/11 18:24:37;;;;;;;2.95;1.00;;;;;;;;;;10017113;28;20077;-66
2023/05/11 18:29:31;;;;;;;2.53;1.00;;;;;;;;;;10021210;28;20049;-64
2023/05/11 18:34:24;;;;;;;1.00;0.90;;;;;;;;;;10023840;28;20502;-64
2023/05/11 18:39:18;;;;;;;0.95;0.95;;;;;;;;;;10018326;28;20083;-66
2023/05/11 18:44:13;;;;;;;3.78;1.08;;;;;;;;;;10038417;28;20078;-64
2023/05/11 18:49:07;;;;;;;2.40;1.10;;;;;;;;;;10039648;28;20054;-65
2023/05/11 18:54:00;;;;;;;0.80;0.80;;;;;;;;;;10043335;28;20501;-65
2023/05/11 18:58:53;;;;;;;1.58;1.10;;;;;;;;;;10027024;28;20053;-65
2023/05/11 19:03:47;;;;;;;1.08;1.05;;;;;;;;;;10023610;28;20080;-63
2023/05/11 19:08:41;;;;;;;1.25;1.15;;;;;;;;;;10026957;28;20781;-68
2023/05/11 19:13:35;;;;;;;1.40;1.30;;;;;;;;;;10030899;28;20144;-73
2023/05/11 19:18:29;;;;;;;2.10;1.27;;;;;;;;;;10016999;28;20045;-68
2023/05/11 19:23:23;;;;;;;1.65;1.20;;;;;;;;;;10019110;28;20058;-68
2023/05/11 19:28:17;;;;;;;2.63;1.30;;;;;;;;;;10031026;28;20058;-66
2023/05/11 19:33:11;;;;;;;1.60;1.10;;;;;;;;;;10032429;28;20056;-67
2023/05/11 19:38:07;;;;;;;3.03;1.50;;;;;;;;;;10032419;28;20058;-68
2023/05/11 19:43:17;;;;;;;2.05;1.27;;;;;;;;;;10032287;28;20049;-66
2023/05/11 19:48:12;;;;;;;1.95;1.45;;;;;;;;;;10021244;28;20073;-66
2023/05/11 19:53:07;;;;;;;2.17;1.40;;;;;;;;;;10014512;28;20058;-67
2023/05/11 19:58:00;;;;;;;1.70;1.23;;;;;;;;;;10019147;28;20072;-69
2023/05/11 20:02:53;;;;;;;1.58;1.48;;;;;;;;;;10021521;28;20050;-69
2023/05/11 20:07:47;;;;;;;1.52;1.42;;;;;;;;;;10019405;28;20136;-67
2023/05/11 20:12:40;;;;;;;1.88;1.48;;;;;;;;;;10017430;28;20073;-68
2023/05/11 20:17:34;;;;;;;1.77;1.65;;;;;;;;;;10021827;28;20073;-69
2023/05/11 20:22:28;;;;;;;1.95;1.85;;;;;;;;;;10021089;28;20501;-67
2023/05/11 20:27:23;;;;;;;2.15;1.95;;;;;;;;;;10019064;28;20038;-74
2023/05/11 20:32:17;;;;;;;3.65;2.00;;;;;;;;;;10023582;28;20048;-65
2023/05/11 20:37:10;;;;;;;3.33;2.17;;;;;;;;;;10019817;28;20050;-65
2023/05/11 20:42:05;;;;;;;2.75;2.55;;;;;;;;;;10018041;28;20517;-64
2023/05/11 20:47:00;;;;;;;2.63;2.25;;;;;;;;;;10019021;28;20047;-67
2023/05/11 20:51:53;;;;;;;2.72;2.40;;;;;;;;;;10019017;28;20402;-65
2023/05/11 20:56:46;;;;;;;3.47;2.40;;;;;;;;;;10019353;28;20055;-65
2023/05/11 21:01:41;;;;;;;2.58;2.35;;;;;;;;;;10020622;28;20053;-67
2023/05/11 21:06:35;;;;;;;4.28;2.78;;;;;;;;;;10017590;28;20046;-74
2023/05/11 21:11:29;;;;;;;3.15;2.60;;;;;;;;;;10013971;28;20053;-67
2023/05/11 21:16:22;;;;;;;2.05;1.90;;;;;;;;;;10003817;28;20053;-67
2023/05/11 21:21:15;;;;;;;2.10;2.00;;;;;;;;;;10003907;28;20137;-67
2023/05/11 21:26:09;;;;;;;3.97;2.30;;;;;;;;;;10004881;28;20054;-67
2023/05/11 21:31:02;;;;;;;2.72;2.22;;;;;;;;;;10012393;28;20050;-67
2023/05/11 21:35:57;;;;;;;1.80;1.70;;;;;;;;;;10026183;28;20064;-67
2023/05/11 21:40:55;;;;;;;2.25;2.05;;;;;;;;;;10027771;28;20054;-67
2023/05/11 21:45:49;;;;;;;4.25;2.17;;;;;;;;;;10025041;28;20080;-67
2023/05/11 21:50:42;;;;;;;3.40;2.53;;;;;;;;;;10035001;28;20104;-68
2023/05/11 21:55:36;;;;;;;3.58;2.60;;;;;;;;;;10036201;28;20502;-67
2023/05/11 22:00:31;;;;;;;5.00;2.92;;;;;;;;;;10032030;28;20136;-68
2023/05/11 22:05:25;;;;;;;3.72;3.42;;;;;;;;;;10028233;28;20115;-67
2023/05/11 22:10:19;;;;;;;4.25;3.83;;;;;;;;;;10034112;28;20500;-67
2023/05/11 22:15:13;;;;;;;5.05;4.10;;;;;;;;;;10037950;28;20130;-67
2023/05/11 22:20:13;;;;;;;5.60;3.10;;;;;;;;;;10029764;28;20116;-67
2023/05/11 22:25:09;;;;;;;3.17;2.92;;;;;;;;;;10029783;28;20060;-67
2023/05/11 22:30:03;;;;;;;3.05;2.75;;;;;;;;;;10025836;28;20054;-66
2023/05/11 22:35:00;;;;;;;2.95;2.67;;;;;;;;;;10028405;28;20046;-67
2023/05/11 22:39:53;;;;;;;3.15;2.95;;;;;;;;;;10026261;28;20100;-66
2023/05/11 22:44:47;;;;;;;2.80;2.60;;;;;;;;;;10027896;28;20048;-66
2023/05/11 22:49:41;;;;;;;3.03;2.58;;;;;;;;;;10029198;28;20081;-66
2023/05/11 22:54:35;;;;;;;4.25;2.80;;;;;;;;;;10036089;28;20077;-66
2023/05/11 22:59:33;;;;;;;2.42;2.33;;;;;;;;;;10033058;28;20054;-66
2023/05/11 23:04:29;;;;;;;5.18;2.90;;;;;;;;;;10025863;28;20073;-66
2023/05/11 23:09:23;;;;;;;3.72;3.42;;;;;;;;;;10024583;28;20054;-66
2023/05/11 23:14:16;;;;;;;4.03;3.72;;;;;;;;;;10024947;28;20050;-66
2023/05/11 23:19:08;;;;;;;4.88;4.47;;;;;;;;;;10033741;28;20060;-66
2023/05/11 23:24:01;;;;;;;5.82;5.32;;;;;;;;;;10023690;28;20475;-66
2023/05/11 23:28:54;;;;;;;6.80;5.22;;;;;;;;;;10031038;28;20046;-66
2023/05/11 23:33:48;;;;;;;4.78;4.07;;;;;;;;;;10033647;28;20133;-66
2023/05/11 23:38:42;;;;;;;5.38;4.88;;;;;;;;;;10021943;28;20057;-66
2023/05/11 23:43:36;;;;;;;6.25;4.43;;;;;;;;;;10029977;28;20050;-66
2023/05/11 23:48:29;;;;;;;6.10;5.50;;;;;;;;;;10038907;28;20069;-66
2023/05/11 23:53:22;;;;;;;8.00;5.20;;;;;;;;;;10031122;28;20062;-66
2023/05/11 23:58:16;;;;;;;6.05;5.55;;;;;;;;;;10035035;28;20104;-66
